ADDS METAR Data INFO
IDs: Format: Raw Decoded Include TAF

Data at: 0732 UTC 18 Oct 2017

KLYV 180719Z AUTO 00000KT 10SM CLR 06/04 A2987 RMK AO2
KLYV 180658Z AUTO 00000KT 10SM CLR 07/04 A2988 RMK AO2
KLYV 180639Z AUTO 00000KT 10SM CLR 07/05 A2989 RMK AO2
KLYV 180619Z AUTO 00000KT 10SM CLR 07/05 A2989 RMK AO2
KLYV 180558Z AUTO 19003KT 10SM CLR 07/05 A2989 RMK AO2
KLYV 180539Z AUTO 00000KT 10SM CLR 08/05 A2990 RMK AO2
KLYV 180519Z AUTO 00000KT 10SM CLR 08/05 A2991 RMK AO2
KLYV 180458Z AUTO 15003KT 10SM CLR 09/06 A2992 RMK AO2
KLYV 180439Z AUTO 19003KT 10SM CLR 09/05 A2993 RMK AO2
KLYV 180418Z AUTO 19003KT 10SM CLR 09/05 A2993 RMK AO2
KLYV 180359Z AUTO 18005KT 10SM CLR 10/05 A2993 RMK AO2
KLYV 180339Z AUTO 18005KT 10SM CLR 11/05 A2993 RMK AO2
KLYV 180318Z AUTO 18005KT 10SM CLR 11/05 A2993 RMK AO2
KLYV 180259Z AUTO 18005KT 10SM CLR 11/05 A2993 RMK AO2
KLYV 180239Z AUTO 18005KT 10SM CLR 10/04 A2993 RMK AO2
KLYV 180218Z AUTO 18004KT 10SM CLR 10/03 A2993 RMK AO2
KLYV 180159Z AUTO 18003KT 10SM CLR 10/03 A2993 RMK AO2
KLYV 180139Z AUTO 00000KT 10SM CLR 11/02 A2993 RMK AO2
KLYV 180118Z AUTO 00000KT 10SM CLR 11/02 A2993 RMK AO2
KLYV 180059Z AUTO 00000KT 10SM CLR 12/02 A2993 RMK AO2
KLYV 180039Z AUTO 00000KT 10SM CLR 13/02 A2993 RMK AO2
KLYV 180018Z AUTO 17004KT 10SM CLR 15/02 A2993 RMK AO2
KLYV 172359Z AUTO 19004KT 10SM CLR 16/01 A2993 RMK AO2
KLYV 172339Z AUTO 19004KT 10SM CLR 18/00 A2993 RMK AO2
KLYV 172318Z AUTO 19005KT 10SM CLR 20/00 A2993 RMK AO2
KLYV 172259Z AUTO 21005KT 10SM CLR 21/01 A2994 RMK AO2
KLYV 172239Z AUTO 21006KT 10SM CLR 22/01 A2994 RMK AO2
KLYV 172219Z AUTO 23007KT 10SM CLR 22/00 A2995 RMK AO2
KLYV 172159Z AUTO 25008KT 10SM CLR 23/01 A2995 RMK AO2
KLYV 172139Z AUTO 25006KT 10SM CLR 23/01 A2996 RMK AO2
KLYV 172118Z AUTO 23009KT 10SM CLR 23/00 A2996 RMK AO2
KLYV 172059Z AUTO 23007KT 10SM CLR 24/01 A2997 RMK AO2
KLYV 172039Z AUTO 26004KT 10SM CLR 24/00 A2997 RMK AO2
KLYV 172018Z AUTO 23005KT 10SM CLR 23/00 A2997 RMK AO2
KLYV 171959Z AUTO 25007KT 10SM CLR 23/01 A2998 RMK AO2
KLYV 171939Z AUTO 22003KT CLR 23/01 A2999 RMK AO2 P0004 PWINO
KLYV 171918Z AUTO 20006KT CLR 23/01 A3000 RMK AO2 PWINO
KLYV 171859Z AUTO 25008KT 10SM CLR 23/01 A3001 RMK AO2
KLYV 171838Z AUTO 22006KT 10SM CLR 22/02 A3002 RMK AO2
KLYV 171819Z AUTO 22005KT 10SM CLR 22/02 A3002 RMK AO2
KLYV 171759Z AUTO 21005KT 10SM CLR 21/04 A3004 RMK AO2
KLYV 171738Z AUTO 21004KT 10SM CLR 20/05 A3004 RMK AO2
KLYV 171719Z AUTO 00000KT 10SM CLR 19/05 A3005 RMK AO2
KLYV 171659Z AUTO 24005KT 10SM CLR 18/05 A3005 RMK AO2
KLYV 171639Z AUTO 21004KT 10SM CLR 17/05 A3005 RMK AO2
KLYV 171619Z AUTO 19003KT 10SM CLR 16/05 A3005 RMK AO2
KLYV 171559Z AUTO 00000KT 10SM CLR 13/06 A3005 RMK AO2
KLYV 171538Z AUTO 00000KT 10SM CLR 11/05 A3005 RMK AO2
KLYV 171519Z AUTO 00000KT 10SM CLR 08/05 A3006 RMK AO2
KLYV 171459Z AUTO 00000KT 10SM CLR 07/04 A3006 RMK AO2
KLYV 171438Z AUTO 00000KT 10SM CLR 06/03 A3007 RMK AO2
KLYV 171419Z AUTO 00000KT 10SM CLR 05/02 A3006 RMK AO2
KLYV 171359Z AUTO 00000KT 10SM CLR 03/02 A3006 RMK AO2
KLYV 171338Z AUTO 00000KT 10SM CLR 01/00 A3005 RMK AO2
KLYV 171319Z AUTO 00000KT 10SM CLR 01/00 A3005 RMK AO2
KLYV 171259Z AUTO 00000KT 10SM CLR 01/00 A3005 RMK AO2
KLYV 171238Z AUTO 00000KT 10SM CLR 01/00 A3005 RMK AO2
KLYV 171219Z AUTO 00000KT 10SM CLR 01/00 A3005 RMK AO2
KLYV 171159Z AUTO 00000KT 10SM CLR 01/00 A3005 RMK AO2
KLYV 171138Z AUTO 00000KT 10SM CLR 01/00 A3005 RMK AO2
KLYV 171119Z AUTO 00000KT 10SM CLR 01/00 A3005 RMK AO2
KLYV 171059Z AUTO 00000KT 10SM CLR 01/00 A3005 RMK AO2
KLYV 171038Z AUTO 00000KT 10SM CLR 01/00 A3004 RMK AO2
KLYV 171019Z AUTO 00000KT 10SM CLR 01/00 A3004 RMK AO2
KLYV 170959Z AUTO 00000KT 10SM CLR 01/00 A3004 RMK AO2
KLYV 170938Z AUTO 00000KT 10SM CLR 01/00 A3004 RMK AO2
KLYV 170919Z AUTO 00000KT 10SM CLR 01/00 A3004 RMK AO2
KLYV 170859Z AUTO 00000KT 10SM CLR 02/00 A3005 RMK AO2
KLYV 170838Z AUTO 00000KT 10SM CLR 02/01 A3005 RMK AO2
KLYV 170819Z AUTO 00000KT 10SM CLR 02/00 A3004 RMK AO2
KLYV 170759Z AUTO 00000KT 10SM CLR 02/01 A3004 RMK AO2
KLYV 170738Z AUTO 00000KT 10SM CLR 03/01 A3004 RMK AO2
KLYV 170719Z AUTO 00000KT 10SM CLR 03/01 A3004 RMK AO2
KLYV 170659Z AUTO 00000KT 10SM CLR 03/01 A3003 RMK AO2
KLYV 170638Z AUTO 00000KT 10SM CLR 03/01 A3003 RMK AO2
KLYV 170619Z AUTO 00000KT 10SM CLR 03/01 A3002 RMK AO2
KLYV 170559Z AUTO 00000KT 10SM CLR 04/02 A3002 RMK AO2
KLYV 170538Z AUTO 00000KT 10SM CLR 05/01 A3002 RMK AO2
KLYV 170519Z AUTO 00000KT 10SM CLR 05/02 A3002 RMK AO2
KLYV 170459Z AUTO 00000KT 10SM CLR 05/02 A3002 RMK AO2
KLYV 170438Z AUTO 00000KT 10SM CLR 05/02 A3003 RMK AO2
KLYV 170419Z AUTO 00000KT 10SM CLR 05/02 A3003 RMK AO2
KLYV 170359Z AUTO 00000KT 10SM CLR 06/02 A3003 RMK AO2
KLYV 170339Z AUTO 00000KT 10SM CLR 07/03 A3003 RMK AO2
KLYV 170319Z AUTO 20003KT 10SM CLR 07/02 A3002 RMK AO2
KLYV 170259Z AUTO 14003KT 10SM CLR 07/03 A3002 RMK AO2
KLYV 170239Z AUTO 00000KT 10SM CLR 10/02 A3002 RMK AO2
KLYV 170219Z AUTO 21004KT 10SM CLR 10/02 A3001 RMK AO2
KLYV 170158Z AUTO 21005KT 10SM CLR 10/02 A3001 RMK AO2
KLYV 170139Z AUTO 18003KT 10SM CLR 11/02 A3001 RMK AO2
KLYV 170119Z AUTO 18004KT 10SM CLR 11/02 A3001 RMK AO2
KLYV 170058Z AUTO 00000KT 10SM CLR 12/02 A3002 RMK AO2
KLYV 170039Z AUTO 19004KT 10SM CLR 12/01 A3001 RMK AO2
KLYV 170019Z AUTO 20004KT 10SM CLR 13/01 A3001 RMK AO2
KLYV 162358Z AUTO 20005KT 10SM CLR 15/00 A3001 RMK AO2
KLYV 162339Z AUTO 20006KT 10SM CLR 17/00 A3000 RMK AO2
KLYV 162319Z AUTO 21006KT 10SM CLR 18/00 A3001 RMK AO2
KLYV 162259Z AUTO 22009KT 10SM CLR 20/00 A3002 RMK AO2
KLYV 162239Z AUTO 22008G16KT 10SM CLR 21/00 A3002 RMK AO2
KLYV 162218Z AUTO 21009KT 10SM CLR 21/00 A3002 RMK AO2
KLYV 162159Z AUTO 22014G19KT 10SM CLR 21/00 A3002 RMK AO2
KLYV 162139Z AUTO 20007KT 10SM CLR 20/00 A3002 RMK AO2
KLYV 162118Z AUTO 20010G18KT 10SM CLR 21/00 A3003 RMK AO2
KLYV 162059Z AUTO 20010G18KT 10SM CLR 21/00 A3004 RMK AO2
KLYV 162039Z AUTO 20015G20KT 10SM CLR 21/00 A3005 RMK AO2
KLYV 162018Z AUTO 19013G20KT 10SM CLR 21/00 A3005 RMK AO2
KLYV 161959Z AUTO 20014G20KT 10SM CLR 20/00 A3007 RMK AO2
KLYV 161939Z AUTO 20014G19KT 10SM CLR 20/00 A3008 RMK AO2